Terminal Aerodrome Forecast
Issued by NWS

Home | Current Version | Previous Version | Text Only | Print | Product List | Glossary On
Versions: 1 2 3 4 5 6 7 8 9 10 11 12 13 14 15
000
FTUS46 KMTR 020500 AAA
TAFMRY
TAF AMD
KMRY 020538Z 0206/0306 24004KT P6SM SKC
      TEMPO 0208/0210 OVC008
     FM021000 VRB03KT P6SM OVC009
     FM021700 30006KT P6SM FEW010
     FM022300 30011KT P6SM SKC
     FM030300 31006KT P6SM BKN010=

USA.gov is the U.S. government's official web portal to all federal, state and local government web resources and services.